createdAt,value
2023-02-25T00:02:27.907Z,85.87
2023-02-25T00:05:31.797Z,85.97
2023-02-25T00:08:34.669Z,86.10
2023-02-25T00:11:36.660Z,87.95
2023-02-25T00:14:38.071Z,86.98
2023-02-25T00:17:39.952Z,87.67
2023-02-25T00:20:41.413Z,87.51
2023-02-25T00:23:45.467Z,88.08
2023-02-25T00:26:46.918Z,90.05
2023-02-25T00:29:52.993Z,88.75
2023-02-25T00:32:54.456Z,87.80
2023-02-25T00:35:55.857Z,88.06
2023-02-25T00:38:57.656Z,87.96
2023-02-25T00:41:59.068Z,86.59
2023-02-25T00:45:00.451Z,86.80
2023-02-25T00:48:01.894Z,86.59
2023-02-25T00:51:14.604Z,87.90
2023-02-25T00:54:16.078Z,88.37
2023-02-25T00:57:17.516Z,88.35
2023-02-25T01:00:19.266Z,88.69
2023-02-25T01:03:20.646Z,89.44
2023-02-25T01:06:23.776Z,90.42
2023-02-25T01:09:25.516Z,89.85
2023-02-25T01:12:26.925Z,90.65
2023-02-25T01:15:30.710Z,91.85
2023-02-25T01:18:34.493Z,92.04
2023-02-25T01:21:40.056Z,91.94
2023-02-25T01:24:41.595Z,91.79
2023-02-25T01:27:43.678Z,91.91
2023-02-25T01:30:45.600Z,91.25
2023-02-25T01:33:47.043Z,91.56
2023-02-25T01:36:48.794Z,90.49
2023-02-25T01:39:50.266Z,90.80
2023-02-25T01:42:52.718Z,90.97
2023-02-25T01:45:56.473Z,92.33
2023-02-25T01:48:58.207Z,91.90
2023-02-25T01:52:07.802Z,91.92
2023-02-25T01:55:10.358Z,92.17
2023-02-25T01:58:12.491Z,92.60
2023-02-25T02:01:17.643Z,92.08
2023-02-25T02:04:22.053Z,92.59
2023-02-25T02:07:24.826Z,93.49
2023-02-25T02:10:26.392Z,93.40
2023-02-25T02:13:31.595Z,94.05
2023-02-25T02:17:10.660Z,93.25
2023-02-25T02:20:20.677Z,93.49
2023-02-25T02:23:59.049Z,94.01
2023-02-25T02:27:11.173Z,92.56
2023-02-25T02:30:32.812Z,91.26
2023-02-25T02:33:52.042Z,91.75
2023-02-25T02:37:05.190Z,90.79
2023-02-25T02:40:27.698Z,93.11
2023-02-25T02:43:37.403Z,91.06
2023-02-25T02:46:45.218Z,91.71
2023-02-25T02:49:53.724Z,92.71
2023-02-25T02:52:59.553Z,92.60
2023-02-25T02:56:04.879Z,90.92
2023-02-25T02:59:20.847Z,91.42
2023-02-25T03:02:37.815Z,90.56
2023-02-25T03:05:41.543Z,89.89
2023-02-25T03:08:48.016Z,88.71
2023-02-25T03:11:49.476Z,87.04
2023-02-25T03:14:52.806Z,88.80
2023-02-25T03:17:58.980Z,89.20
2023-02-25T03:21:03.599Z,88.73
2023-02-25T03:24:08.806Z,88.57
2023-02-25T03:27:34.225Z,86.13
2023-02-25T03:30:48.573Z,85.17
2023-02-25T03:34:03.202Z,82.64
2023-02-25T03:37:32.309Z,82.20
2023-02-25T03:40:35.146Z,82.60
2023-02-25T03:43:44.103Z,82.27
2023-02-25T03:46:47.148Z,82.60
2023-02-25T03:50:05.855Z,84.54
2023-02-25T03:53:07.316Z,85.51
2023-02-25T03:56:24.206Z,84.84
2023-02-25T03:59:27.901Z,84.63
2023-02-25T04:02:33.573Z,83.78
2023-02-25T04:05:36.080Z,81.51
2023-02-25T04:08:37.980Z,80.79
2023-02-25T04:11:39.386Z,80.67
2023-02-25T04:14:41.311Z,79.55
2023-02-25T04:17:45.096Z,79.37
2023-02-25T04:20:46.642Z,80.04
2023-02-25T04:23:48.036Z,79.86
2023-02-25T04:26:49.473Z,79.70
2023-02-25T04:29:50.907Z,78.11
2023-02-25T04:32:52.428Z,77.04
2023-02-25T04:35:53.857Z,76.06
2023-02-25T04:38:56.155Z,76.54
2023-02-25T04:41:57.649Z,75.01
2023-02-25T04:44:59.032Z,75.45
2023-02-25T04:48:00.443Z,75.48
2023-02-25T04:51:02.371Z,75.76
2023-02-25T04:54:04.025Z,74.11
2023-02-25T04:57:06.769Z,75.21
2023-02-25T05:00:16.123Z,74.89
2023-02-25T05:03:17.753Z,74.19
2023-02-25T05:06:19.132Z,73.31
2023-02-25T05:09:21.220Z,73.92
2023-02-25T05:12:22.595Z,73.59
2023-02-25T05:15:25.295Z,75.00
2023-02-25T05:18:26.830Z,75.60
2023-02-25T05:21:29.496Z,76.47
2023-02-25T05:24:31.332Z,75.74
2023-02-25T05:27:33.412Z,75.86
2023-02-25T05:30:35.026Z,75.38
2023-02-25T05:33:37.837Z,75.19
2023-02-25T05:36:40.343Z,72.67
2023-02-25T05:39:41.842Z,72.12
2023-02-25T05:42:43.375Z,72.17
2023-02-25T05:45:44.808Z,72.77
2023-02-25T05:48:46.591Z,72.03
2023-02-25T05:51:49.616Z,72.69
2023-02-25T05:54:50.989Z,73.74
2023-02-25T05:57:52.841Z,74.92
2023-02-25T06:00:54.288Z,76.33
2023-02-25T06:03:58.391Z,75.38
2023-02-25T06:06:59.843Z,74.65
2023-02-25T06:10:01.774Z,73.16
2023-02-25T06:13:03.186Z,73.18
2023-02-25T06:16:05.262Z,74.84
2023-02-25T06:19:07.129Z,75.32
2023-02-25T06:22:08.514Z,73.88
2023-02-25T06:25:09.975Z,74.87
2023-02-25T06:28:11.527Z,74.88
2023-02-25T06:31:15.912Z,74.94
2023-02-25T06:34:18.974Z,74.74
2023-02-25T06:37:20.379Z,74.45
2023-02-25T06:40:22.038Z,74.03
2023-02-25T06:43:23.429Z,73.99
2023-02-25T06:46:26.828Z,74.23
2023-02-25T06:49:29.584Z,74.66
2023-02-25T06:52:31.787Z,74.17
2023-02-25T06:55:33.377Z,73.21
2023-02-25T06:58:35.606Z,73.53
2023-02-25T07:01:37.854Z,72.40
2023-02-25T07:04:40.367Z,72.99
2023-02-25T07:07:42.638Z,73.14
2023-02-25T07:10:44.034Z,73.22
2023-02-25T07:13:49.828Z,72.21
2023-02-25T07:16:52.118Z,71.54
2023-02-25T07:19:53.512Z,70.83
2023-02-25T07:22:54.984Z,70.21
2023-02-25T07:25:56.362Z,70.95
2023-02-25T07:28:59.081Z,70.62
2023-02-25T07:32:00.770Z,69.91
2023-02-25T07:35:02.596Z,70.62
2023-02-25T07:38:04.133Z,69.07
2023-02-25T07:41:08.196Z,68.57
2023-02-25T07:44:09.700Z,68.10
2023-02-25T07:47:11.066Z,67.99
2023-02-25T07:50:13.074Z,68.55
2023-02-25T07:53:14.649Z,66.95
2023-02-25T07:56:17.539Z,66.92
2023-02-25T07:59:19.420Z,66.43
2023-02-25T08:02:21.785Z,65.98
2023-02-25T08:05:24.116Z,65.58
2023-02-25T08:08:25.713Z,65.12
2023-02-25T08:11:27.505Z,65.41
2023-02-25T08:14:28.910Z,64.93
2023-02-25T08:17:34.372Z,65.51
2023-02-25T08:20:36.358Z,65.17
2023-02-25T08:23:38.159Z,64.59
2023-02-25T08:26:39.587Z,63.89
2023-02-25T08:29:40.959Z,63.49
2023-02-25T08:32:42.582Z,63.52
2023-02-25T08:35:45.563Z,63.74
2023-02-25T08:38:47.348Z,62.32
2023-02-25T08:41:48.759Z,62.36
2023-02-25T08:44:50.267Z,61.37
2023-02-25T08:47:51.692Z,60.50
2023-02-25T08:50:53.130Z,60.24
2023-02-25T08:53:54.541Z,60.10
2023-02-25T08:56:57.159Z,61.55
2023-02-25T08:59:58.543Z,60.36
2023-02-25T09:02:59.979Z,59.69
2023-02-25T09:06:01.370Z,58.99
2023-02-25T09:09:02.926Z,59.17
2023-02-25T09:12:05.139Z,58.65
2023-02-25T09:15:07.435Z,58.75
2023-02-25T09:18:08.841Z,58.88
2023-02-25T09:21:12.417Z,59.38
2023-02-25T09:24:14.481Z,59.91
2023-02-25T09:27:17.103Z,59.99
2023-02-25T09:30:18.948Z,60.64
2023-02-25T09:33:20.533Z,60.94
2023-02-25T09:36:22.393Z,61.04
2023-02-25T09:39:23.835Z,60.84
2023-02-25T09:42:32.874Z,60.96
2023-02-25T09:45:35.023Z,60.53
2023-02-25T09:48:59.070Z,61.71
2023-02-25T09:52:14.035Z,61.76
2023-02-25T09:55:35.812Z,61.21
2023-02-25T09:58:43.338Z,61.09
2023-02-25T10:02:16.272Z,60.67
2023-02-25T10:05:39.162Z,61.92
2023-02-25T10:08:56.973Z,60.32
2023-02-25T10:12:13.406Z,60.09
2023-02-25T10:16:01.675Z,60.91
2023-02-25T10:19:40.852Z,61.47
2023-02-25T10:23:25.417Z,63.41
2023-02-25T10:26:33.384Z,64.90
2023-02-25T10:29:46.396Z,68.13
2023-02-25T10:32:48.953Z,75.88
2023-02-25T10:35:57.479Z,81.24
2023-02-25T10:38:59.082Z,81.64
2023-02-25T10:42:00.627Z,84.26
2023-02-25T10:45:14.994Z,84.21
2023-02-25T10:48:21.551Z,85.29
2023-02-25T10:51:23.839Z,83.39
2023-02-25T10:54:26.284Z,83.76
2023-02-25T10:57:40.084Z,81.38
2023-02-25T11:00:56.224Z,79.62
2023-02-25T11:04:02.629Z,77.60
2023-02-25T11:07:31.918Z,74.02
2023-02-25T11:10:34.975Z,73.67
2023-02-25T11:13:37.147Z,74.35
2023-02-25T11:16:42.041Z,75.17
2023-02-25T11:20:01.432Z,72.38
2023-02-25T11:23:03.001Z,72.92
2023-02-25T11:26:06.668Z,70.57
2023-02-25T11:29:20.325Z,73.06
2023-02-25T11:32:22.795Z,71.23
2023-02-25T11:35:31.788Z,70.01
2023-02-25T11:38:36.743Z,70.89
2023-02-25T11:41:38.183Z,68.74
2023-02-25T11:44:45.322Z,71.60
2023-02-25T11:47:49.327Z,78.31
2023-02-25T11:50:57.628Z,83.46
2023-02-25T11:54:20.880Z,88.47
2023-02-25T11:57:58.533Z,86.68
2023-02-25T12:01:27.806Z,90.04
2023-02-25T12:04:47.960Z,89.33
2023-02-25T12:08:13.843Z,86.83
2023-02-25T12:11:46.183Z,89.89
2023-02-25T12:15:09.202Z,87.81
2023-02-25T12:18:36.226Z,79.96
2023-02-25T12:22:12.530Z,82.49
2023-02-25T12:25:26.870Z,73.41
2023-02-25T12:28:49.742Z,74.90
2023-02-25T12:32:16.431Z,73.60
2023-02-25T12:35:27.569Z,67.62
2023-02-25T12:38:47.468Z,65.53
2023-02-25T12:42:21.140Z,63.85
2023-02-25T12:45:40.785Z,61.13
2023-02-25T12:49:09.147Z,59.80
2023-02-25T12:52:25.064Z,62.58
2023-02-25T12:55:57.420Z,60.55
2023-02-25T12:59:13.314Z,60.02
2023-02-25T13:02:42.625Z,58.70
2023-02-25T13:06:12.179Z,57.82
2023-02-25T13:09:39.098Z,57.16
2023-02-25T13:12:57.888Z,57.13
2023-02-25T13:16:21.028Z,57.15
2023-02-25T13:20:00.426Z,55.59
2023-02-25T13:23:26.703Z,54.19
2023-02-25T13:26:40.927Z,54.90
2023-02-25T13:30:12.380Z,54.97
2023-02-25T13:33:35.115Z,55.78
2023-02-25T13:36:48.786Z,56.02
2023-02-25T13:40:05.849Z,56.93
2023-02-25T13:43:19.970Z,57.00
2023-02-25T13:46:39.500Z,56.16
2023-02-25T13:49:59.598Z,56.26
2023-02-25T13:53:20.441Z,55.55
2023-02-25T13:57:15.329Z,55.40
2023-02-25T14:00:16.681Z,54.78
2023-02-25T14:03:55.808Z,52.46
2023-02-25T14:07:29.761Z,53.15
2023-02-25T14:10:53.081Z,53.91
2023-02-25T14:14:26.796Z,54.91
2023-02-25T14:17:48.596Z,59.10
2023-02-25T14:21:22.710Z,69.41
2023-02-25T14:24:49.258Z,78.64
2023-02-25T14:28:03.050Z,80.64
2023-02-25T14:31:20.059Z,84.12
2023-02-25T14:34:55.973Z,83.87
2023-02-25T14:38:13.056Z,85.03
2023-02-25T14:41:23.187Z,83.22
2023-02-25T14:44:35.281Z,82.94
2023-02-25T14:48:01.962Z,81.51
2023-02-25T14:51:12.326Z,81.16
2023-02-25T14:54:51.088Z,81.72
2023-02-25T14:58:17.284Z,79.28
2023-02-25T15:02:02.022Z,79.76
2023-02-25T15:05:54.575Z,72.78
2023-02-25T15:09:38.519Z,63.01
2023-02-25T15:12:59.599Z,62.15
2023-02-25T15:16:27.542Z,62.20
2023-02-25T15:20:00.839Z,61.92
2023-02-25T15:23:07.258Z,62.02
2023-02-25T15:26:39.201Z,61.34
2023-02-25T15:29:40.583Z,61.88
2023-02-25T15:33:13.411Z,60.57
2023-02-25T15:36:14.791Z,60.91
2023-02-25T15:39:53.580Z,60.99
2023-02-25T15:42:57.453Z,61.38
2023-02-25T15:46:07.971Z,59.09
2023-02-25T15:49:33.692Z,60.38
2023-02-25T15:52:53.829Z,60.03
2023-02-25T15:56:16.572Z,61.40
2023-02-25T15:59:41.054Z,62.27
2023-02-25T16:02:43.636Z,62.99
2023-02-25T16:05:46.624Z,63.90
2023-02-25T16:09:00.391Z,63.37
2023-02-25T16:12:07.019Z,60.60
2023-02-25T16:15:15.507Z,61.84
2023-02-25T16:18:21.299Z,63.33
2023-02-25T16:21:46.420Z,64.26
2023-02-25T16:24:51.690Z,69.12
2023-02-25T16:28:04.459Z,75.18
2023-02-25T16:31:21.378Z,80.49
2023-02-25T16:34:55.021Z,83.56
2023-02-25T16:38:14.374Z,85.14
2023-02-25T16:41:16.019Z,84.24
2023-02-25T16:44:21.506Z,84.78
2023-02-25T16:47:29.646Z,84.83
2023-02-25T16:50:33.835Z,84.71
2023-02-25T16:53:35.969Z,84.37
2023-02-25T16:56:37.711Z,84.61
2023-02-25T16:59:39.112Z,83.82
2023-02-25T17:02:48.299Z,83.11
2023-02-25T17:06:06.448Z,83.84
2023-02-25T17:09:22.482Z,82.42
2023-02-25T17:12:40.780Z,82.21
2023-02-25T17:15:42.408Z,81.17
2023-02-25T17:18:49.579Z,81.46
2023-02-25T17:21:57.101Z,82.78
2023-02-25T17:25:00.100Z,82.11
2023-02-25T17:28:01.776Z,81.91
2023-02-25T17:31:12.790Z,82.28
2023-02-25T17:34:18.761Z,83.19
2023-02-25T17:37:22.004Z,82.95
2023-02-25T17:40:26.899Z,84.37
2023-02-25T17:43:36.074Z,84.98
2023-02-25T17:46:42.179Z,85.84
2023-02-25T17:49:43.574Z,87.28
2023-02-25T17:52:47.692Z,88.80
2023-02-25T17:55:49.050Z,88.61
2023-02-25T17:58:52.279Z,89.52
2023-02-25T18:01:56.725Z,90.28
2023-02-25T18:05:22.718Z,90.55
2023-02-25T18:08:25.646Z,91.72
2023-02-25T18:11:39.178Z,92.19
2023-02-25T18:14:43.664Z,92.98
2023-02-25T18:17:50.152Z,93.04
2023-02-25T18:20:57.664Z,92.18
2023-02-25T18:24:00.134Z,92.51
2023-02-25T18:27:04.467Z,93.77
2023-02-25T18:30:12.055Z,93.52
2023-02-25T18:33:13.438Z,92.82
2023-02-25T18:36:27.065Z,91.19
2023-02-25T18:39:28.727Z,91.80
2023-02-25T18:42:30.106Z,92.36
2023-02-25T18:45:33.172Z,92.13
2023-02-25T18:48:35.378Z,91.78
2023-02-25T18:51:38.490Z,92.65
2023-02-25T18:54:41.556Z,93.32
2023-02-25T18:57:43.024Z,92.98
2023-02-25T19:00:48.068Z,92.07
2023-02-25T19:03:51.014Z,92.63
2023-02-25T19:06:52.421Z,92.86
2023-02-25T19:09:55.717Z,92.65
2023-02-25T19:13:07.569Z,94.02
2023-02-25T19:16:09.491Z,94.21
2023-02-25T19:19:10.920Z,94.15
2023-02-25T19:22:16.074Z,94.73
2023-02-25T19:25:22.973Z,96.37
2023-02-25T19:28:24.486Z,95.31
2023-02-25T19:31:25.914Z,95.74
2023-02-25T19:34:27.322Z,96.15
2023-02-25T19:37:32.015Z,94.46
2023-02-25T19:40:34.055Z,90.75
2023-02-25T19:43:35.556Z,86.12
2023-02-25T19:46:37.050Z,82.31
2023-02-25T19:49:38.532Z,78.85
2023-02-25T19:52:40.137Z,76.40
2023-02-25T19:55:43.669Z,69.93
2023-02-25T19:58:45.241Z,67.29
2023-02-25T20:01:47.190Z,66.49
2023-02-25T20:04:48.860Z,65.09
2023-02-25T20:07:50.731Z,63.75
2023-02-25T20:10:52.185Z,63.09
2023-02-25T20:13:53.616Z,62.82
2023-02-25T20:16:56.958Z,63.24
2023-02-25T20:19:58.347Z,61.29
2023-02-25T20:22:59.800Z,60.34
2023-02-25T20:26:09.377Z,60.75
2023-02-25T20:29:10.799Z,58.83
2023-02-25T20:32:12.415Z,58.79
2023-02-25T20:35:18.176Z,58.52
2023-02-25T20:38:34.641Z,59.13
2023-02-25T20:41:36.307Z,58.94
2023-02-25T20:44:38.523Z,58.01
2023-02-25T20:47:40.178Z,58.07
2023-02-25T20:50:42.017Z,57.78
2023-02-25T20:53:43.605Z,57.97
2023-02-25T20:56:46.050Z,58.11
2023-02-25T20:59:48.295Z,58.81
2023-02-25T21:02:49.772Z,58.40
2023-02-25T21:05:51.269Z,58.59
2023-02-25T21:08:53.637Z,58.56
2023-02-25T21:11:55.203Z,58.57
2023-02-25T21:14:56.661Z,57.86
2023-02-25T21:17:58.198Z,58.76
2023-02-25T21:21:02.723Z,58.64
2023-02-25T21:24:09.729Z,59.20
2023-02-25T21:27:11.919Z,59.22
2023-02-25T21:30:13.707Z,59.02
2023-02-25T21:33:15.919Z,59.22
2023-02-25T21:36:17.392Z,60.01
2023-02-25T21:39:18.857Z,59.26
2023-02-25T21:42:20.269Z,60.19
2023-02-25T21:45:21.704Z,60.87
2023-02-25T21:48:24.770Z,60.92
2023-02-25T21:51:28.191Z,61.72
2023-02-25T21:54:29.587Z,62.71
2023-02-25T21:57:30.996Z,62.68
2023-02-25T22:00:32.522Z,63.42
2023-02-25T22:03:33.976Z,63.60
2023-02-25T22:06:35.933Z,63.94
2023-02-25T22:09:37.312Z,64.56
2023-02-25T22:12:38.723Z,64.92
2023-02-25T22:15:40.178Z,65.58
2023-02-25T22:18:41.973Z,65.70
2023-02-25T22:21:43.378Z,65.90
2023-02-25T22:24:44.848Z,65.96
2023-02-25T22:27:46.350Z,66.27
2023-02-25T22:30:47.829Z,66.14
2023-02-25T22:33:49.805Z,65.83
2023-02-25T22:36:51.267Z,66.14
2023-02-25T22:39:52.635Z,65.97
2023-02-25T22:42:54.073Z,64.89
2023-02-25T22:46:38.102Z,66.58
2023-02-25T22:49:39.604Z,65.52
2023-02-25T22:52:41.079Z,64.96
2023-02-25T22:55:43.483Z,64.95
2023-02-25T22:58:45.094Z,65.21
2023-02-25T23:01:46.560Z,64.48
2023-02-25T23:04:47.985Z,64.76
2023-02-25T23:07:49.738Z,66.04
2023-02-25T23:10:51.449Z,65.31
2023-02-25T23:13:58.159Z,65.36
2023-02-25T23:16:59.552Z,65.15
2023-02-25T23:20:01.511Z,65.80
2023-02-25T23:23:04.929Z,65.62
2023-02-25T23:26:08.251Z,65.61
2023-02-25T23:29:11.341Z,65.56
2023-02-25T23:32:12.778Z,66.43
2023-02-25T23:35:14.312Z,67.07
2023-02-25T23:38:15.851Z,67.67
2023-02-25T23:41:17.372Z,68.30
2023-02-25T23:44:18.810Z,68.85
2023-02-25T23:47:20.242Z,69.65
2023-02-25T23:50:21.628Z,69.72
2023-02-25T23:53:23.414Z,70.39
2023-02-25T23:56:26.985Z,70.89
2023-02-25T23:59:28.711Z,70.74
